createdAt,value
2018-01-18T00:01:25.145Z,100184.75
2018-01-18T00:03:51.085Z,100181.04
2018-01-18T00:06:17.052Z,100176.00
2018-01-18T00:08:43.024Z,100174.62
2018-01-18T00:11:09.117Z,100173.20
2018-01-18T00:13:35.094Z,100163.22
2018-01-18T00:16:01.038Z,100168.44
2018-01-18T00:18:26.989Z,100165.09
2018-01-18T00:20:52.973Z,100154.49
2018-01-18T00:23:18.949Z,100153.14
2018-01-18T00:25:44.905Z,100150.45
2018-01-18T00:28:10.950Z,100147.05
2018-01-18T00:30:36.889Z,100141.55
2018-01-18T00:33:02.901Z,100142.22
2018-01-18T00:35:28.840Z,100136.59
2018-01-18T00:37:54.796Z,100134.59
2018-01-18T00:40:20.919Z,100126.55
2018-01-18T00:42:46.880Z,100123.67
2018-01-18T00:45:12.836Z,100111.14
2018-01-18T00:47:38.777Z,100106.45
2018-01-18T00:50:04.806Z,100096.14
2018-01-18T00:52:30.752Z,100096.64
2018-01-18T00:54:56.708Z,100083.28
2018-01-18T00:57:22.693Z,100082.20
2018-01-18T00:59:48.626Z,100072.24
2018-01-18T01:02:14.585Z,100073.77
2018-01-18T01:04:40.538Z,100071.72
2018-01-18T01:07:06.477Z,100057.83
2018-01-18T01:09:32.442Z,100044.39
2018-01-18T01:11:58.384Z,100047.11
2018-01-18T01:14:24.333Z,100034.58
2018-01-18T01:16:50.280Z,100022.55
2018-01-18T01:19:16.216Z,100014.46
2018-01-18T01:21:42.161Z,100009.36
2018-01-18T01:24:08.101Z,100005.45
2018-01-18T01:26:34.044Z,100005.33
2018-01-18T01:28:59.993Z,99998.09
2018-01-18T01:31:25.954Z,100003.08
2018-01-18T01:33:51.918Z,99988.87
2018-01-18T01:36:17.937Z,99986.62
2018-01-18T01:38:43.884Z,99988.44
2018-01-18T01:41:09.839Z,99987.55
2018-01-18T01:43:35.776Z,99983.09
2018-01-18T01:46:01.749Z,99972.06
2018-01-18T01:48:27.705Z,99968.45
2018-01-18T01:50:53.669Z,99958.45
2018-01-18T01:53:19.601Z,99951.86
2018-01-18T01:55:45.569Z,99932.92
2018-01-18T01:58:11.520Z,99922.14
2018-01-18T02:00:37.490Z,99905.49
2018-01-18T02:03:03.440Z,99898.23
2018-01-18T02:05:29.378Z,99893.14
2018-01-18T02:07:55.317Z,99897.36
2018-01-18T02:10:21.258Z,99888.36
2018-01-18T02:12:47.304Z,99888.27
2018-01-18T02:15:13.249Z,99893.48
2018-01-18T02:17:39.233Z,99890.27
2018-01-18T02:20:05.173Z,99890.58
2018-01-18T02:22:31.129Z,99891.09
2018-01-18T02:24:57.069Z,99888.60
2018-01-18T02:27:23.160Z,99870.83
2018-01-18T02:29:49.113Z,99861.09
2018-01-18T02:32:15.084Z,99844.64
2018-01-18T02:34:41.038Z,99840.68
2018-01-18T02:37:06.977Z,99830.70
2018-01-18T02:39:32.924Z,99828.75
2018-01-18T02:41:58.922Z,99826.91
2018-01-18T02:44:24.869Z,99810.30
2018-01-18T02:46:50.825Z,99796.37
2018-01-18T02:49:16.760Z,99785.42
2018-01-18T02:51:42.732Z,99773.88
2018-01-18T02:54:08.672Z,99767.05
2018-01-18T02:56:34.637Z,99752.22
2018-01-18T02:59:00.583Z,99741.94
2018-01-18T03:01:26.517Z,99733.63
2018-01-18T03:03:52.457Z,99727.95
2018-01-18T03:06:18.401Z,99707.86
2018-01-18T03:08:44.357Z,99696.73
2018-01-18T03:11:10.297Z,99687.91
2018-01-18T03:13:36.253Z,99670.23
2018-01-18T03:16:02.252Z,99660.44
2018-01-18T03:18:28.210Z,99647.33
2018-01-18T03:20:54.169Z,99634.25
2018-01-18T03:23:20.114Z,99615.70
2018-01-18T03:25:46.049Z,99594.31
2018-01-18T03:28:11.984Z,99588.64
2018-01-18T03:30:37.930Z,99579.16
2018-01-18T03:33:03.865Z,99564.17
2018-01-18T03:35:29.829Z,99554.13
2018-01-18T03:37:55.785Z,99541.97
2018-01-18T03:40:21.720Z,99522.62
2018-01-18T03:42:47.685Z,99516.84
2018-01-18T03:45:13.706Z,99500.88
2018-01-18T03:47:39.654Z,99489.39
2018-01-18T03:50:05.601Z,99470.02
2018-01-18T03:52:31.537Z,99447.67
2018-01-18T03:54:57.481Z,99433.20
2018-01-18T03:57:23.417Z,99419.75
2018-01-18T03:59:49.361Z,99401.25
2018-01-18T04:02:15.305Z,99386.54
2018-01-18T04:04:41.353Z,99374.61
2018-01-18T04:07:07.289Z,99370.65
2018-01-18T04:09:33.221Z,99355.94
2018-01-18T04:11:59.176Z,99352.02
2018-01-18T04:14:25.116Z,99342.97
2018-01-18T04:16:51.054Z,99324.94
2018-01-18T04:19:16.993Z,99325.36
2018-01-18T04:21:42.937Z,99312.80
2018-01-18T04:24:08.876Z,99295.66
2018-01-18T04:26:34.845Z,99286.84
2018-01-18T04:29:00.802Z,99265.34
2018-01-18T04:31:26.761Z,99258.34
2018-01-18T04:33:52.704Z,99243.39
2018-01-18T04:36:18.641Z,99227.91
2018-01-18T04:38:44.584Z,99213.38
2018-01-18T04:41:10.541Z,99201.13
2018-01-18T04:43:36.477Z,99182.53
2018-01-18T04:46:02.444Z,99169.28
2018-01-18T04:48:28.397Z,99158.03
2018-01-18T04:50:54.348Z,99146.86
2018-01-18T04:53:20.284Z,99149.00
2018-01-18T04:55:46.221Z,99144.15
2018-01-18T04:58:12.181Z,99125.02
2018-01-18T05:00:38.141Z,99118.18
2018-01-18T05:03:04.089Z,99115.34
2018-01-18T05:05:30.038Z,99103.84
2018-01-18T05:07:55.994Z,99084.63
2018-01-18T05:10:21.932Z,99072.16
2018-01-18T05:12:47.875Z,99064.06
2018-01-18T05:15:13.833Z,99046.84
2018-01-18T05:17:39.794Z,99053.10
2018-01-18T05:20:05.750Z,99032.86
2018-01-18T05:22:31.685Z,99013.95
2018-01-18T05:24:57.652Z,99003.06
2018-01-18T05:27:23.596Z,99001.41
2018-01-18T05:29:49.529Z,98991.27
2018-01-18T05:32:15.472Z,98978.67
2018-01-18T05:34:41.437Z,98972.36
2018-01-18T05:37:07.429Z,98968.90
2018-01-18T05:39:33.375Z,98958.17
2018-01-18T05:41:59.336Z,98950.66
2018-01-18T05:44:25.295Z,98952.45
2018-01-18T05:46:51.439Z,98946.12
2018-01-18T05:49:17.377Z,98946.11
2018-01-18T05:51:43.423Z,98941.53
2018-01-18T05:54:09.376Z,98924.59
2018-01-18T05:56:35.321Z,98925.30
2018-01-18T05:59:01.258Z,98924.50
2018-01-18T06:01:27.309Z,98903.41
2018-01-18T06:03:53.248Z,98889.41
2018-01-18T06:06:19.190Z,98882.07
2018-01-18T06:08:45.148Z,98865.80
2018-01-18T06:11:11.152Z,98859.44
2018-01-18T06:13:37.134Z,98838.62
2018-01-18T06:16:03.038Z,98834.95
2018-01-18T06:18:29.000Z,98829.38
2018-01-18T06:20:54.951Z,98810.13
2018-01-18T06:23:20.893Z,98812.24
2018-01-18T06:25:46.838Z,98814.94
2018-01-18T06:28:12.785Z,98792.75
2018-01-18T06:30:38.725Z,98796.59
2018-01-18T06:33:04.686Z,98790.05
2018-01-18T06:35:30.645Z,98808.07
2018-01-18T06:37:56.588Z,98806.11
2018-01-18T06:40:22.549Z,98768.73
2018-01-18T06:42:48.565Z,98755.09
2018-01-18T06:45:14.506Z,98734.56
2018-01-18T06:47:40.518Z,98725.55
2018-01-18T06:50:06.485Z,98727.84
2018-01-18T06:52:32.431Z,98724.23
2018-01-18T06:54:58.413Z,98727.78
2018-01-18T06:57:24.353Z,98718.44
2018-01-18T06:59:50.326Z,98728.59
2018-01-18T07:02:16.257Z,98722.44
2018-01-18T07:04:42.194Z,98708.27
2018-01-18T07:07:08.258Z,98717.75
2018-01-18T07:09:34.197Z,98689.14
2018-01-18T07:12:00.133Z,98694.82
2018-01-18T07:14:26.075Z,98700.72
2018-01-18T07:16:52.013Z,98693.75
2018-01-18T07:19:17.953Z,98695.63
2018-01-18T07:21:43.901Z,98696.03
2018-01-18T07:24:09.837Z,98693.72
2018-01-18T07:26:35.820Z,98682.03
2018-01-18T07:29:01.776Z,98669.28
2018-01-18T07:31:27.707Z,98659.94
2018-01-18T07:33:53.669Z,98671.59
2018-01-18T07:36:19.613Z,98667.53
2018-01-18T07:38:45.550Z,98670.94
2018-01-18T07:41:11.525Z,98639.91
2018-01-18T07:43:37.473Z,98661.19
2018-01-18T07:46:03.449Z,98622.70
2018-01-18T07:48:29.425Z,98645.44
2018-01-18T07:50:55.369Z,98631.11
2018-01-18T07:53:21.317Z,98619.54
2018-01-18T07:55:47.261Z,98643.49
2018-01-18T07:58:13.218Z,98642.28
2018-01-18T08:00:39.153Z,98611.06
2018-01-18T08:03:05.132Z,98629.42
2018-01-18T08:05:31.077Z,98600.10
2018-01-18T08:07:57.050Z,98610.14
2018-01-18T08:10:22.994Z,98628.87
2018-01-18T08:12:48.940Z,98611.84
2018-01-18T08:15:14.904Z,98610.04
2018-01-18T08:17:40.882Z,98614.77
2018-01-18T08:20:06.813Z,98573.61
2018-01-18T08:22:32.748Z,98585.47
2018-01-18T08:24:58.685Z,98595.11
2018-01-18T08:27:24.624Z,98604.23
2018-01-18T08:29:50.561Z,98587.70
2018-01-18T08:32:16.540Z,98571.77
2018-01-18T08:34:42.554Z,98562.45
2018-01-18T08:37:08.511Z,98578.27
2018-01-18T08:39:34.448Z,98582.91
2018-01-18T08:42:00.413Z,98573.22
2018-01-18T08:44:26.365Z,98564.23
2018-01-18T08:46:52.321Z,98570.95
2018-01-18T08:49:18.262Z,98559.47
2018-01-18T08:51:44.196Z,98552.80
2018-01-18T08:54:10.141Z,98592.56
2018-01-18T08:56:36.110Z,98551.58
2018-01-18T08:59:02.076Z,98549.95
2018-01-18T09:01:28.029Z,98547.71
2018-01-18T09:03:54.001Z,98561.11
2018-01-18T09:06:19.956Z,98561.22
2018-01-18T09:08:45.913Z,98564.88
2018-01-18T09:11:11.889Z,98559.50
2018-01-18T09:13:37.836Z,98523.58
2018-01-18T09:16:03.798Z,98557.78
2018-01-18T09:18:29.757Z,98558.91
2018-01-18T09:20:55.800Z,98563.75
2018-01-18T09:23:21.744Z,98581.00
2018-01-18T09:25:47.697Z,98585.77
2018-01-18T09:28:13.732Z,98592.67
2018-01-18T09:30:39.674Z,98584.34
2018-01-18T09:33:05.745Z,98605.66
2018-01-18T09:35:31.693Z,98594.52
2018-01-18T09:37:57.645Z,98585.95
2018-01-18T09:40:23.601Z,98623.52
2018-01-18T09:42:49.552Z,98604.23
2018-01-18T09:45:15.496Z,98629.58
2018-01-18T09:47:41.453Z,98636.90
2018-01-18T09:50:07.414Z,98648.36
2018-01-18T09:52:33.356Z,98637.60
2018-01-18T09:54:59.380Z,98640.31
2018-01-18T09:57:25.283Z,98663.31
2018-01-18T09:59:51.227Z,98669.36
2018-01-18T10:02:17.188Z,98684.85
2018-01-18T10:04:43.134Z,98697.56
2018-01-18T10:07:09.088Z,98711.67
2018-01-18T10:09:35.028Z,98711.33
2018-01-18T10:12:01.021Z,98716.80
2018-01-18T10:14:26.975Z,98727.22
2018-01-18T10:16:52.930Z,98741.73
2018-01-18T10:19:18.872Z,98764.09
2018-01-18T10:21:44.825Z,98765.92
2018-01-18T10:24:10.768Z,98785.08
2018-01-18T10:26:36.705Z,98808.39
2018-01-18T10:29:02.648Z,98864.16
2018-01-18T10:31:28.594Z,98867.47
2018-01-18T10:33:54.525Z,98880.15
2018-01-18T10:36:20.501Z,98886.72
2018-01-18T10:38:46.456Z,98881.11
2018-01-18T10:41:12.393Z,98905.42
2018-01-18T10:43:38.350Z,98912.20
2018-01-18T10:46:04.284Z,98938.30
2018-01-18T10:48:30.238Z,98966.95
2018-01-18T10:50:56.189Z,98959.83
2018-01-18T10:53:22.145Z,98971.80
2018-01-18T10:55:48.082Z,98970.20
2018-01-18T10:58:14.034Z,98998.55
2018-01-18T11:00:39.974Z,99001.66
2018-01-18T11:03:05.913Z,99026.06
2018-01-18T11:05:31.959Z,99037.78
2018-01-18T11:07:57.921Z,99066.31
2018-01-18T11:10:23.856Z,99057.59
2018-01-18T11:12:49.811Z,99083.79
2018-01-18T11:15:15.768Z,99119.14
2018-01-18T11:17:42.141Z,99092.20
2018-01-18T11:20:08.081Z,99107.41
2018-01-18T11:22:34.029Z,99124.23
2018-01-18T11:24:59.965Z,99122.52
2018-01-18T11:27:25.918Z,99134.77
2018-01-18T11:29:51.897Z,99134.44
2018-01-18T11:32:17.829Z,99143.39
2018-01-18T11:34:43.995Z,99153.23
2018-01-18T11:37:10.123Z,99150.92
2018-01-18T11:39:36.084Z,99173.41
2018-01-18T11:42:02.031Z,99162.12
2018-01-18T11:44:28.017Z,99177.00
2018-01-18T11:46:53.967Z,99193.84
2018-01-18T11:49:19.917Z,99184.09
2018-01-18T11:51:45.856Z,99199.96
2018-01-18T11:54:11.821Z,99200.87
2018-01-18T11:56:37.795Z,99229.38
2018-01-18T11:59:03.744Z,99236.09
2018-01-18T12:01:29.777Z,99229.05
2018-01-18T12:03:55.714Z,99219.48
2018-01-18T12:06:21.883Z,99262.70
2018-01-18T12:08:48.052Z,99251.63
2018-01-18T12:11:14.017Z,99257.59
2018-01-18T12:13:39.957Z,99271.59
2018-01-18T12:16:05.977Z,99280.42
2018-01-18T12:18:31.921Z,99275.25
2018-01-18T12:20:57.878Z,99283.67
2018-01-18T12:23:23.828Z,99284.98
2018-01-18T12:25:49.917Z,99289.52
2018-01-18T12:28:15.878Z,99297.50
2018-01-18T12:30:41.854Z,99321.98
2018-01-18T12:33:07.800Z,99330.51
2018-01-18T12:35:33.747Z,99329.70
2018-01-18T12:37:59.687Z,99334.51
2018-01-18T12:40:25.636Z,99347.56
2018-01-18T12:42:51.570Z,99347.53
2018-01-18T12:45:17.513Z,99362.02
2018-01-18T12:47:43.498Z,99368.02
2018-01-18T12:50:09.437Z,99371.31
2018-01-18T12:52:35.393Z,99379.09
2018-01-18T12:55:01.346Z,99382.40
2018-01-18T12:57:27.294Z,99385.92
2018-01-18T12:59:53.245Z,99394.55
2018-01-18T13:02:19.196Z,99409.49
2018-01-18T13:04:45.197Z,99416.97
2018-01-18T13:07:11.351Z,99407.13
2018-01-18T13:09:37.292Z,99415.57
2018-01-18T13:12:03.273Z,99417.56
2018-01-18T13:14:29.229Z,99427.97
2018-01-18T13:16:55.233Z,99423.23
2018-01-18T13:19:21.181Z,99441.88
2018-01-18T13:21:47.173Z,99433.00
2018-01-18T13:24:13.100Z,99445.73
2018-01-18T13:26:39.057Z,99446.98
2018-01-18T13:29:04.999Z,99426.22
2018-01-18T13:31:30.952Z,99450.39
2018-01-18T13:33:56.909Z,99466.95
2018-01-18T13:36:22.877Z,99470.99
2018-01-18T13:38:48.836Z,99474.87
2018-01-18T13:41:14.772Z,99470.92
2018-01-18T13:43:40.721Z,99477.18
2018-01-18T13:46:06.758Z,99473.82
2018-01-18T13:48:32.702Z,99480.95
2018-01-18T13:50:58.661Z,99487.09
2018-01-18T13:53:24.611Z,99488.45
2018-01-18T13:55:50.545Z,99491.72
2018-01-18T13:58:16.501Z,99504.98
2018-01-18T14:00:42.441Z,99495.00
2018-01-18T14:03:08.385Z,99500.20
2018-01-18T14:05:34.379Z,99501.86
2018-01-18T14:08:00.308Z,99512.27
2018-01-18T14:10:26.248Z,99511.08
2018-01-18T14:12:52.214Z,99506.27
2018-01-18T14:15:18.146Z,99518.51
2018-01-18T14:17:44.085Z,99514.27
2018-01-18T14:20:10.025Z,99514.38
2018-01-18T14:22:35.984Z,99513.23
2018-01-18T14:25:01.949Z,99516.50
2018-01-18T14:27:27.893Z,99518.81
2018-01-18T14:29:53.837Z,99517.94
2018-01-18T14:32:19.781Z,99524.48
2018-01-18T14:34:45.810Z,99524.19
2018-01-18T14:37:11.744Z,99530.77
2018-01-18T14:39:37.696Z,99531.94
2018-01-18T14:42:03.702Z,99530.55
2018-01-18T14:44:29.677Z,99537.63
2018-01-18T14:46:55.639Z,99539.76
2018-01-18T14:49:21.577Z,99545.54
2018-01-18T14:51:47.538Z,99553.80
2018-01-18T14:54:13.490Z,99563.99
2018-01-18T14:56:39.420Z,99556.81
2018-01-18T14:59:05.390Z,99570.59
2018-01-18T15:01:31.369Z,99581.84
2018-01-18T15:03:57.325Z,99571.97
2018-01-18T15:06:23.273Z,99589.04
2018-01-18T15:08:49.253Z,99583.86
2018-01-18T15:11:15.201Z,99595.57
2018-01-18T15:13:41.160Z,99592.17
2018-01-18T15:16:07.143Z,99593.08
2018-01-18T15:18:33.088Z,99601.70
2018-01-18T15:20:59.067Z,99604.06
2018-01-18T15:23:25.008Z,99607.13
2018-01-18T15:25:50.973Z,99611.78
2018-01-18T15:28:16.934Z,99606.92
2018-01-18T15:30:42.881Z,99610.42
2018-01-18T15:33:08.837Z,99606.78
2018-01-18T15:35:34.765Z,99614.22
2018-01-18T15:38:00.833Z,99614.45
2018-01-18T15:40:26.792Z,99618.90
2018-01-18T15:42:52.757Z,99617.76
2018-01-18T15:45:18.705Z,99625.17
2018-01-18T15:47:44.645Z,99623.20
2018-01-18T15:50:10.595Z,99628.19
2018-01-18T15:52:36.579Z,99628.00
2018-01-18T15:55:02.631Z,99637.36
2018-01-18T15:57:28.672Z,99636.02
2018-01-18T15:59:54.650Z,99636.72
2018-01-18T16:02:20.594Z,99637.77
2018-01-18T16:04:46.621Z,99646.89
2018-01-18T16:07:12.561Z,99652.23
2018-01-18T16:09:38.613Z,99652.75
2018-01-18T16:12:04.554Z,99656.27
2018-01-18T16:14:30.506Z,99662.95
2018-01-18T16:16:56.491Z,99660.66
2018-01-18T16:19:22.518Z,99652.80
2018-01-18T16:21:48.536Z,99667.05
2018-01-18T16:24:14.501Z,99662.13
2018-01-18T16:26:40.489Z,99664.68
2018-01-18T16:29:06.449Z,99669.20
2018-01-18T16:31:32.445Z,99674.98
2018-01-18T16:33:58.413Z,99675.70
2018-01-18T16:36:24.423Z,99677.06
2018-01-18T16:38:50.388Z,99675.23
2018-01-18T16:41:16.320Z,99680.50
2018-01-18T16:43:42.266Z,99677.02
2018-01-18T16:46:08.217Z,99682.19
2018-01-18T16:48:34.165Z,99678.84
2018-01-18T16:51:00.138Z,99679.84
2018-01-18T16:53:26.089Z,99685.88
2018-01-18T16:55:52.042Z,99680.08
2018-01-18T16:58:18.074Z,99676.14
2018-01-18T17:00:43.936Z,99674.92
2018-01-18T17:03:09.886Z,99663.80
2018-01-18T17:05:35.860Z,99668.92
2018-01-18T17:08:01.844Z,99669.22
2018-01-18T17:10:27.811Z,99670.95
2018-01-18T17:12:53.768Z,99673.75
2018-01-18T17:15:19.755Z,99670.79
2018-01-18T17:17:45.720Z,99676.43
2018-01-18T17:20:11.750Z,99678.98
2018-01-18T17:22:37.816Z,99672.06
2018-01-18T17:25:03.754Z,99673.88
2018-01-18T17:27:29.695Z,99679.84
2018-01-18T17:29:55.665Z,99683.53
2018-01-18T17:32:21.606Z,99680.54
2018-01-18T17:34:47.549Z,99682.08
2018-01-18T17:37:13.506Z,99687.14
2018-01-18T17:39:39.465Z,99696.17
2018-01-18T17:42:05.418Z,99703.81
2018-01-18T17:44:31.357Z,99709.30
2018-01-18T17:46:57.296Z,99699.88
2018-01-18T17:49:23.281Z,99703.13
2018-01-18T17:51:49.238Z,99693.33
2018-01-18T17:54:15.215Z,99696.17
2018-01-18T17:56:41.169Z,99703.08
2018-01-18T17:59:07.297Z,99694.95
2018-01-18T18:01:33.263Z,99696.02
2018-01-18T18:03:59.265Z,99699.33
2018-01-18T18:06:25.219Z,99699.31
2018-01-18T18:08:51.170Z,99695.38
2018-01-18T18:11:17.138Z,99702.78
2018-01-18T18:13:43.112Z,99714.65
2018-01-18T18:16:09.071Z,99709.78
2018-01-18T18:18:35.045Z,99712.86
2018-01-18T18:21:00.977Z,99714.60
2018-01-18T18:23:27.229Z,99708.51
2018-01-18T18:25:53.193Z,99704.59
2018-01-18T18:28:19.137Z,99705.80
2018-01-18T18:30:45.074Z,99709.62
2018-01-18T18:33:11.021Z,99713.57
2018-01-18T18:35:36.982Z,99714.27
2018-01-18T18:38:02.977Z,99709.52
2018-01-18T18:40:28.914Z,99712.25
2018-01-18T18:42:54.881Z,99722.86
2018-01-18T18:45:20.836Z,99721.28
2018-01-18T18:47:46.773Z,99725.88
2018-01-18T18:50:12.745Z,99723.58
2018-01-18T18:52:38.724Z,99725.41
2018-01-18T18:55:04.697Z,99727.39
2018-01-18T18:57:30.660Z,99731.34
2018-01-18T18:59:56.603Z,99732.77
2018-01-18T19:02:22.579Z,99730.84
2018-01-18T19:04:48.557Z,99730.53
2018-01-18T19:07:14.498Z,99729.12
2018-01-18T19:09:40.473Z,99733.69
2018-01-18T19:12:06.421Z,99738.30
2018-01-18T19:14:32.398Z,99731.36
2018-01-18T19:16:58.369Z,99727.75
2018-01-18T19:19:24.319Z,99732.06
2018-01-18T19:21:50.278Z,99737.88
2018-01-18T19:24:16.327Z,99734.23
2018-01-18T19:26:42.252Z,99735.09
2018-01-18T19:29:08.204Z,99740.53
2018-01-18T19:31:34.170Z,99743.11
2018-01-18T19:34:00.124Z,99750.22
2018-01-18T19:36:26.068Z,99745.11
2018-01-18T19:38:52.029Z,99748.36
2018-01-18T19:41:17.974Z,99749.02
2018-01-18T19:43:43.967Z,99745.81
2018-01-18T19:46:09.878Z,99744.49
2018-01-18T19:48:35.816Z,99738.45
2018-01-18T19:51:01.754Z,99739.88
2018-01-18T19:53:27.705Z,99733.23
2018-01-18T19:55:53.785Z,99730.58
2018-01-18T19:58:19.725Z,99720.30
2018-01-18T20:00:45.715Z,99725.88
2018-01-18T20:03:11.688Z,99723.73
2018-01-18T20:05:37.672Z,99724.34
2018-01-18T20:08:03.684Z,99717.93
2018-01-18T20:10:29.639Z,99720.72
2018-01-18T20:12:55.581Z,99720.94
2018-01-18T20:15:21.554Z,99721.04
2018-01-18T20:17:47.509Z,99717.23
2018-01-18T20:20:13.462Z,99714.54
2018-01-18T20:22:39.414Z,99717.27
2018-01-18T20:25:05.368Z,99724.95
2018-01-18T20:27:31.387Z,99722.88
2018-01-18T20:29:57.328Z,99719.78
2018-01-18T20:32:23.283Z,99733.27
2018-01-18T20:34:49.240Z,99729.67
2018-01-18T20:37:15.189Z,99728.05
2018-01-18T20:39:41.128Z,99736.17
2018-01-18T20:42:07.085Z,99734.14
2018-01-18T20:44:33.053Z,99742.77
2018-01-18T20:46:59.002Z,99746.22
2018-01-18T20:49:24.951Z,99739.98
2018-01-18T20:51:51.004Z,99727.59
2018-01-18T20:54:16.940Z,99727.27
2018-01-18T20:56:42.896Z,99722.41
2018-01-18T20:59:08.853Z,99716.88
2018-01-18T21:01:34.825Z,99715.41
2018-01-18T21:04:00.770Z,99712.25
2018-01-18T21:06:26.732Z,99716.11
2018-01-18T21:08:52.694Z,99708.20
2018-01-18T21:11:18.718Z,99707.12
2018-01-18T21:13:44.650Z,99710.13
2018-01-18T21:16:10.593Z,99712.01
2018-01-18T21:18:36.566Z,99706.17
2018-01-18T21:21:02.550Z,99703.88
2018-01-18T21:23:28.474Z,99702.97
2018-01-18T21:25:54.430Z,99706.32
2018-01-18T21:28:20.386Z,99701.91
2018-01-18T21:30:46.425Z,99700.64
2018-01-18T21:33:12.385Z,99703.39
2018-01-18T21:35:38.358Z,99707.75
2018-01-18T21:38:04.293Z,99709.38
2018-01-18T21:40:30.271Z,99705.92
2018-01-18T21:42:56.215Z,99706.72
2018-01-18T21:45:22.156Z,99708.62
2018-01-18T21:47:48.120Z,99705.22
2018-01-18T21:50:14.055Z,99713.88
2018-01-18T21:52:40.030Z,99704.18
2018-01-18T21:55:05.974Z,99707.73
2018-01-18T21:57:31.944Z,99709.52
2018-01-18T21:59:57.973Z,99713.23
2018-01-18T22:02:23.941Z,99703.23
2018-01-18T22:04:49.926Z,99702.52
2018-01-18T22:07:15.879Z,99704.81
2018-01-18T22:09:41.812Z,99709.59
2018-01-18T22:12:07.761Z,99700.81
2018-01-18T22:14:33.713Z,99703.75
2018-01-18T22:16:59.694Z,99703.29
2018-01-18T22:19:25.645Z,99703.05
2018-01-18T22:21:51.605Z,99710.04
2018-01-18T22:24:17.694Z,99711.97
2018-01-18T22:26:43.670Z,99713.28
2018-01-18T22:29:09.611Z,99716.48
2018-01-18T22:31:35.557Z,99716.12
2018-01-18T22:34:01.496Z,99720.95
2018-01-18T22:36:27.436Z,99721.04
2018-01-18T22:38:53.400Z,99731.90
2018-01-18T22:41:19.459Z,99738.36
2018-01-18T22:43:45.454Z,99739.88
2018-01-18T22:46:11.398Z,99740.99
2018-01-18T22:48:37.353Z,99746.62
2018-01-18T22:51:03.310Z,99748.55
2018-01-18T22:53:29.260Z,99748.46
2018-01-18T22:55:55.213Z,99750.22
2018-01-18T22:58:21.145Z,99740.45
2018-01-18T23:00:47.116Z,99744.79
2018-01-18T23:03:13.180Z,99736.53
2018-01-18T23:05:39.133Z,99734.45
2018-01-18T23:08:05.126Z,99737.03
2018-01-18T23:10:31.168Z,99736.38
2018-01-18T23:12:57.130Z,99737.09
2018-01-18T23:15:23.077Z,99739.02
2018-01-18T23:17:49.045Z,99743.78
2018-01-18T23:20:14.985Z,99748.66
2018-01-18T23:22:40.956Z,99754.59
2018-01-18T23:25:06.889Z,99753.38
2018-01-18T23:27:32.832Z,99761.59
2018-01-18T23:29:58.803Z,99761.05
2018-01-18T23:32:24.732Z,99767.33
2018-01-18T23:34:50.678Z,99767.33
2018-01-18T23:37:16.633Z,99770.44
2018-01-18T23:39:42.617Z,99767.38
2018-01-18T23:42:08.697Z,99768.09
2018-01-18T23:44:34.636Z,99764.83
2018-01-18T23:47:00.573Z,99769.70
2018-01-18T23:49:26.628Z,99775.73
2018-01-18T23:51:52.591Z,99783.11
2018-01-18T23:54:18.529Z,99785.02
2018-01-18T23:56:44.523Z,99791.12
2018-01-18T23:59:10.474Z,99798.06
